createdAt,value
2023-02-02T00:00:00.329Z,5.4
2023-02-02T00:05:00.181Z,5.5
2023-02-02T00:10:00.509Z,5.5
2023-02-02T00:15:00.230Z,5.5
2023-02-02T00:20:00.261Z,5.6
2023-02-02T00:25:00.152Z,5.5
2023-02-02T00:30:00.246Z,5.5
2023-02-02T00:35:00.276Z,5.5
2023-02-02T00:40:00.276Z,5.5
2023-02-02T00:45:00.198Z,5.5
2023-02-02T00:50:00.267Z,5.5
2023-02-02T00:55:00.254Z,5.5
2023-02-02T01:00:00.257Z,5.5
2023-02-02T01:05:00.221Z,5.6
2023-02-02T01:10:00.212Z,5.6
2023-02-02T01:15:00.217Z,5.6
2023-02-02T01:20:00.261Z,5.6
2023-02-02T01:25:00.207Z,5.6
2023-02-02T01:30:00.273Z,5.6
2023-02-02T01:35:00.227Z,5.6
2023-02-02T01:40:00.252Z,5.6
2023-02-02T01:45:00.219Z,5.6
2023-02-02T01:50:00.269Z,5.6
2023-02-02T01:55:00.206Z,5.6
2023-02-02T02:00:00.313Z,5.6
2023-02-02T02:05:00.245Z,5.6
2023-02-02T02:10:00.222Z,5.6
2023-02-02T02:15:00.275Z,5.7
2023-02-02T02:20:00.226Z,5.7
2023-02-02T02:25:00.272Z,5.7
2023-02-02T02:30:00.207Z,5.8
2023-02-02T02:35:00.233Z,5.8
2023-02-02T02:40:00.259Z,5.8
2023-02-02T02:45:00.216Z,5.8
2023-02-02T02:50:00.268Z,5.9
2023-02-02T02:55:00.242Z,5.9
2023-02-02T03:00:00.282Z,6
2023-02-02T03:05:00.212Z,6
2023-02-02T03:10:00.251Z,6.1
2023-02-02T03:15:00.161Z,6.1
2023-02-02T03:20:00.235Z,6.2
2023-02-02T03:25:00.237Z,6.2
2023-02-02T03:30:00.207Z,6.2
2023-02-02T03:35:00.228Z,6.2
2023-02-02T03:40:00.256Z,6.2
2023-02-02T03:45:00.171Z,6.2
2023-02-02T03:50:00.220Z,6.2
2023-02-02T03:55:00.260Z,6.2
2023-02-02T04:00:00.722Z,6.2
2023-02-02T04:05:00.195Z,6.2
2023-02-02T04:10:00.313Z,6.2
2023-02-02T04:15:00.262Z,6.2
2023-02-02T04:20:00.218Z,6.2
2023-02-02T04:25:00.240Z,6.2
2023-02-02T04:30:00.377Z,6.2
2023-02-02T04:35:00.256Z,6.2
2023-02-02T04:40:00.303Z,6.2
2023-02-02T04:45:00.254Z,6.2
2023-02-02T04:50:00.296Z,6.1
2023-02-02T04:55:00.261Z,6.1
2023-02-02T05:00:00.328Z,6.1
2023-02-02T05:05:00.267Z,6
2023-02-02T05:10:00.302Z,6.1
2023-02-02T05:15:00.269Z,6.1
2023-02-02T05:20:00.314Z,6
2023-02-02T05:25:00.272Z,6.1
2023-02-02T05:30:00.324Z,6.1
2023-02-02T05:35:00.284Z,6.1
2023-02-02T05:40:00.273Z,6.1
2023-02-02T05:45:00.254Z,6.1
2023-02-02T05:50:00.303Z,6.2
2023-02-02T05:55:00.309Z,6.2
2023-02-02T06:00:00.328Z,6.2
2023-02-02T06:05:00.233Z,6.2
2023-02-02T06:10:00.298Z,6.2
2023-02-02T06:15:00.302Z,6.3
2023-02-02T06:20:00.271Z,6.3
2023-02-02T06:25:00.254Z,6.3
2023-02-02T06:30:00.361Z,6.3
2023-02-02T06:35:00.252Z,6.4
2023-02-02T06:40:00.320Z,6.4
2023-02-02T06:45:00.297Z,6.4
2023-02-02T06:50:00.274Z,6.4
2023-02-02T06:55:00.274Z,6.4
2023-02-02T07:00:00.301Z,6.4
2023-02-02T07:05:00.321Z,6.5
2023-02-02T07:10:00.297Z,6.4
2023-02-02T07:15:00.255Z,6.5
2023-02-02T07:20:00.354Z,6.4
2023-02-02T07:25:00.250Z,6.5
2023-02-02T07:30:00.342Z,6.5
2023-02-02T07:35:00.263Z,6.5
2023-02-02T07:40:00.270Z,6.5
2023-02-02T07:45:00.313Z,6.5
2023-02-02T07:50:00.295Z,6.6
2023-02-02T07:55:14.036Z,6.6
2023-02-02T08:00:00.729Z,6.6
2023-02-02T08:05:00.234Z,6.6
2023-02-02T08:10:00.300Z,6.6
2023-02-02T08:15:00.290Z,6.6
2023-02-02T08:20:00.276Z,6.6
2023-02-02T08:25:00.285Z,6.6
2023-02-02T08:30:00.334Z,6.7
2023-02-02T08:35:00.270Z,6.7
2023-02-02T08:40:00.391Z,6.7
2023-02-02T08:46:01.207Z,6.7
2023-02-02T08:50:00.338Z,6.7
2023-02-02T08:55:00.283Z,6.7
2023-02-02T09:00:00.340Z,6.7
2023-02-02T09:05:00.266Z,6.7
2023-02-02T09:10:00.292Z,6.7
2023-02-02T09:15:00.286Z,6.7
2023-02-02T09:20:00.289Z,6.8
2023-02-02T09:25:00.249Z,6.8
2023-02-02T09:30:00.310Z,6.8
2023-02-02T09:35:00.264Z,6.8
2023-02-02T09:40:00.225Z,6.8
2023-02-02T09:45:00.281Z,6.8
2023-02-02T09:50:00.274Z,6.9
2023-02-02T09:55:00.290Z,6.9
2023-02-02T10:00:00.341Z,6.9
2023-02-02T10:05:00.303Z,6.9
2023-02-02T10:10:00.265Z,7
2023-02-02T10:15:00.359Z,7
2023-02-02T10:20:00.320Z,7
2023-02-02T10:25:00.297Z,7
2023-02-02T10:30:00.333Z,7
2023-02-02T10:35:11.403Z,7
2023-02-02T10:40:05.236Z,7
2023-02-02T10:45:00.266Z,7
2023-02-02T10:50:00.300Z,7.1
2023-02-02T10:55:05.173Z,7.1
2023-02-02T11:00:00.324Z,7.1
2023-02-02T11:05:00.355Z,7.1
2023-02-02T11:10:00.319Z,7.1
2023-02-02T11:15:00.304Z,7.1
2023-02-02T11:20:00.293Z,7.1
2023-02-02T11:25:00.240Z,7.1
2023-02-02T11:30:00.303Z,7.1
2023-02-02T11:35:00.276Z,7.1
2023-02-02T11:40:00.296Z,7.1
2023-02-02T11:45:00.313Z,7.1
2023-02-02T11:50:00.290Z,7.1
2023-02-02T11:55:00.278Z,7.1
2023-02-02T12:00:00.385Z,7.1
2023-02-02T12:05:00.252Z,7.1
2023-02-02T12:10:00.333Z,7.2
2023-02-02T12:15:00.214Z,7.2
2023-02-02T12:20:00.308Z,7.2
2023-02-02T12:25:00.295Z,7.2
2023-02-02T12:30:00.406Z,7.2
2023-02-02T12:35:00.270Z,7.2
2023-02-02T12:40:00.427Z,7.2
2023-02-02T12:45:00.267Z,7.2
2023-02-02T12:50:00.311Z,7.1
2023-02-02T12:55:00.259Z,7.2
2023-02-02T13:00:00.336Z,7.1
2023-02-02T13:05:00.251Z,7.1
2023-02-02T13:10:00.342Z,7.1
2023-02-02T13:15:00.268Z,7.2
2023-02-02T13:20:00.240Z,7.1
2023-02-02T13:25:01.321Z,7.1
2023-02-02T13:30:00.330Z,7.2
2023-02-02T13:35:00.230Z,7.2
2023-02-02T13:40:00.309Z,7.2
2023-02-02T13:55:00.360Z,7.2
2023-02-02T14:10:00.270Z,7.3
2023-02-02T14:25:00.203Z,7.3
2023-02-02T14:30:00.260Z,7.3
2023-02-02T14:35:00.288Z,7.3
2023-02-02T14:40:00.289Z,7.3
2023-02-02T14:45:00.181Z,7.3
2023-02-02T14:50:00.255Z,7.3
2023-02-02T14:55:00.241Z,7.3
2023-02-02T15:00:01.575Z,7.3
2023-02-02T15:05:03.062Z,7.3
2023-02-02T15:10:00.211Z,7.3
2023-02-02T15:15:00.220Z,7.3
2023-02-02T15:20:00.264Z,7.3
2023-02-02T15:25:00.243Z,7.3
2023-02-02T15:30:00.274Z,7.3
2023-02-02T15:35:00.228Z,7.3
2023-02-02T15:40:00.191Z,7.3
2023-02-02T15:45:00.171Z,7.3
2023-02-02T15:50:00.248Z,7.3
2023-02-02T15:55:00.198Z,7.3
2023-02-02T16:00:00.447Z,7.3
2023-02-02T16:05:00.230Z,7.3
2023-02-02T16:10:00.288Z,7.3
2023-02-02T16:15:00.275Z,7.3
2023-02-02T16:20:00.230Z,7.3
2023-02-02T16:25:00.231Z,7.4
2023-02-02T16:30:00.262Z,7.4
2023-02-02T16:35:00.273Z,7.4
2023-02-02T16:40:00.195Z,7.4
2023-02-02T16:45:00.259Z,7.4
2023-02-02T16:50:00.265Z,7.3
2023-02-02T16:55:00.235Z,7.3
2023-02-02T17:00:00.327Z,7.3
2023-02-02T17:05:00.291Z,7.4
2023-02-02T17:10:00.238Z,7.3
2023-02-02T17:15:00.215Z,7.4
2023-02-02T17:20:00.244Z,7.4
2023-02-02T17:25:00.244Z,7.4
2023-02-02T17:30:05.929Z,7.4
2023-02-02T17:35:00.254Z,7.4
2023-02-02T17:40:00.246Z,7.4
2023-02-02T17:45:00.238Z,7.4
2023-02-02T17:50:00.244Z,7.4
2023-02-02T17:55:00.335Z,7.4
2023-02-02T18:00:00.297Z,7.4
2023-02-02T18:05:00.279Z,7.5
2023-02-02T18:10:00.290Z,7.4
2023-02-02T18:15:00.184Z,7.4
2023-02-02T18:20:00.215Z,7.4
2023-02-02T18:25:00.193Z,7.4
2023-02-02T18:35:00.313Z,7.4
2023-02-02T18:40:00.229Z,7.4
2023-02-02T18:45:00.192Z,7.4
2023-02-02T18:55:00.303Z,7.4
2023-02-02T19:00:00.337Z,7.4
2023-02-02T19:05:00.251Z,7.4
2023-02-02T19:10:00.257Z,7.4
2023-02-02T19:15:00.213Z,7.4
2023-02-02T19:20:00.246Z,7.5
2023-02-02T19:25:00.236Z,7.5
2023-02-02T19:30:00.301Z,7.5
2023-02-02T19:35:00.304Z,7.5
2023-02-02T19:40:00.278Z,7.5
2023-02-02T19:50:00.451Z,7.6
2023-02-02T19:55:00.261Z,7.6
2023-02-02T20:05:00.243Z,7.6
2023-02-02T20:10:00.407Z,7.6
2023-02-02T20:15:00.280Z,7.6
2023-02-02T20:20:00.262Z,7.6
2023-02-02T20:25:00.214Z,7.6
2023-02-02T20:30:00.279Z,7.6
2023-02-02T20:35:00.271Z,7.6
2023-02-02T20:40:00.292Z,7.6
2023-02-02T20:45:00.229Z,7.7
2023-02-02T20:50:00.323Z,7.7
2023-02-02T20:55:00.255Z,7.7
2023-02-02T21:00:00.282Z,7.7
2023-02-02T21:05:00.176Z,7.7
2023-02-02T21:10:00.292Z,7.8
2023-02-02T21:15:00.229Z,7.8
2023-02-02T21:20:00.266Z,7.8
2023-02-02T21:25:00.211Z,7.8
2023-02-02T21:30:00.237Z,7.8
2023-02-02T21:35:00.173Z,7.8
2023-02-02T21:40:00.271Z,7.9
2023-02-02T21:50:00.273Z,7.9
2023-02-02T21:55:00.232Z,7.9
2023-02-02T22:00:00.301Z,7.9
2023-02-02T22:05:00.180Z,8
2023-02-02T22:10:00.222Z,8
2023-02-02T22:15:00.243Z,8
2023-02-02T22:20:10.839Z,8
2023-02-02T22:25:00.219Z,8
2023-02-02T22:30:00.350Z,8
2023-02-02T22:35:00.192Z,8
2023-02-02T22:40:00.854Z,8
2023-02-02T22:45:00.236Z,8
2023-02-02T22:50:00.232Z,8
2023-02-02T22:55:00.208Z,8
2023-02-02T23:00:00.257Z,8
2023-02-02T23:05:00.197Z,8
2023-02-02T23:10:00.237Z,8
2023-02-02T23:15:00.188Z,8
2023-02-02T23:20:00.256Z,8
2023-02-02T23:25:00.189Z,8
2023-02-02T23:30:00.248Z,8
2023-02-02T23:35:00.200Z,8
2023-02-02T23:40:00.255Z,8.1
2023-02-02T23:45:00.146Z,8.1
2023-02-02T23:50:00.177Z,8.1
2023-02-02T23:55:00.196Z,8.1
